sensor_id;sensor_type;location;lat;lon;timestamp;temperature;humidity
35962;DHT22;22044;48.298;10.008;2023-05-14T00:02:30;10.60;99.90
35962;DHT22;22044;48.298;10.008;2023-05-14T00:05:16;10.60;99.90
35962;DHT22;22044;48.298;10.008;2023-05-14T00:08:03;10.60;99.90
35962;DHT22;22044;48.298;10.008;2023-05-14T00:10:49;10.60;99.90
35962;DHT22;22044;48.298;10.008;2023-05-14T00:13:35;10.60;99.90
35962;DHT22;22044;48.298;10.008;2023-05-14T00:16:20;10.60;99.90
35962;DHT22;22044;48.298;10.008;2023-05-14T00:19:06;10.60;99.90
35962;DHT22;22044;48.298;10.008;2023-05-14T00:21:52;10.50;99.90
35962;DHT22;22044;48.298;10.008;2023-05-14T00:24:39;10.40;99.90
35962;DHT22;22044;48.298;10.008;2023-05-14T00:27:24;10.40;99.90
35962;DHT22;22044;48.298;10.008;2023-05-14T00:30:10;10.40;99.90
35962;DHT22;22044;48.298;10.008;2023-05-14T00:32:56;10.30;99.90
35962;DHT22;22044;48.298;10.008;2023-05-14T00:35:41;10.40;99.90
35962;DHT22;22044;48.298;10.008;2023-05-14T00:38:27;10.40;99.90
35962;DHT22;22044;48.298;10.008;2023-05-14T00:41:14;10.40;99.90
35962;DHT22;22044;48.298;10.008;2023-05-14T00:44:00;10.40;99.90
35962;DHT22;22044;48.298;10.008;2023-05-14T00:46:47;10.40;99.90
35962;DHT22;22044;48.298;10.008;2023-05-14T00:49:33;10.40;99.90
35962;DHT22;22044;48.298;10.008;2023-05-14T00:52:19;10.40;99.90
35962;DHT22;22044;48.298;10.008;2023-05-14T00:55:06;10.40;99.90
35962;DHT22;22044;48.298;10.008;2023-05-14T00:57:55;10.40;99.90
35962;DHT22;22044;48.298;10.008;2023-05-14T01:00:42;10.40;99.90
35962;DHT22;22044;48.298;10.008;2023-05-14T01:03:29;10.50;99.90
35962;DHT22;22044;48.298;10.008;2023-05-14T01:06:20;10.40;99.90
35962;DHT22;22044;48.298;10.008;2023-05-14T01:09:16;10.30;99.90
35962;DHT22;22044;48.298;10.008;2023-05-14T01:12:09;10.30;99.90
35962;DHT22;22044;48.298;10.008;2023-05-14T01:15:01;10.30;99.90
35962;DHT22;22044;48.298;10.008;2023-05-14T01:17:52;10.20;99.90
35962;DHT22;22044;48.298;10.008;2023-05-14T01:20:38;10.20;99.90
35962;DHT22;22044;48.298;10.008;2023-05-14T01:23:27;10.20;99.90
35962;DHT22;22044;48.298;10.008;2023-05-14T01:26:12;10.20;99.90
35962;DHT22;22044;48.298;10.008;2023-05-14T01:29:01;10.20;99.90
35962;DHT22;22044;48.298;10.008;2023-05-14T01:31:50;10.20;99.90
35962;DHT22;22044;48.298;10.008;2023-05-14T01:34:39;10.10;99.90
35962;DHT22;22044;48.298;10.008;2023-05-14T01:37:27;10.00;99.90
35962;DHT22;22044;48.298;10.008;2023-05-14T01:40:15;10.10;99.90
35962;DHT22;22044;48.298;10.008;2023-05-14T01:43:01;10.10;99.90
35962;DHT22;22044;48.298;10.008;2023-05-14T01:45:47;10.10;99.90
35962;DHT22;22044;48.298;10.008;2023-05-14T01:48:33;10.10;99.90
35962;DHT22;22044;48.298;10.008;2023-05-14T01:51:18;10.10;99.90
35962;DHT22;22044;48.298;10.008;2023-05-14T01:54:04;10.10;99.90
35962;DHT22;22044;48.298;10.008;2023-05-14T01:56:51;10.10;99.90
35962;DHT22;22044;48.298;10.008;2023-05-14T01:59:36;10.10;99.90
35962;DHT22;22044;48.298;10.008;2023-05-14T02:02:22;10.20;99.90
35962;DHT22;22044;48.298;10.008;2023-05-14T02:05:09;10.20;99.90
35962;DHT22;22044;48.298;10.008;2023-05-14T02:07:54;10.20;99.90
35962;DHT22;22044;48.298;10.008;2023-05-14T02:10:40;10.20;99.90
35962;DHT22;22044;48.298;10.008;2023-05-14T02:13:27;10.20;99.90
35962;DHT22;22044;48.298;10.008;2023-05-14T02:16:13;10.20;99.90
35962;DHT22;22044;48.298;10.008;2023-05-14T02:18:59;10.30;99.90
35962;DHT22;22044;48.298;10.008;2023-05-14T02:21:44;10.30;99.90
35962;DHT22;22044;48.298;10.008;2023-05-14T02:24:30;10.30;99.90
35962;DHT22;22044;48.298;10.008;2023-05-14T02:27:15;10.30;99.90
35962;DHT22;22044;48.298;10.008;2023-05-14T02:30:03;10.30;99.90
35962;DHT22;22044;48.298;10.008;2023-05-14T02:32:49;10.30;99.90
35962;DHT22;22044;48.298;10.008;2023-05-14T02:35:34;10.40;99.90
35962;DHT22;22044;48.298;10.008;2023-05-14T02:38:21;10.40;99.90
35962;DHT22;22044;48.298;10.008;2023-05-14T02:41:06;10.40;99.90
35962;DHT22;22044;48.298;10.008;2023-05-14T02:43:52;10.30;99.90
35962;DHT22;22044;48.298;10.008;2023-05-14T02:46:40;10.30;99.90
35962;DHT22;22044;48.298;10.008;2023-05-14T02:49:25;10.30;99.90
35962;DHT22;22044;48.298;10.008;2023-05-14T02:52:11;10.30;99.90
35962;DHT22;22044;48.298;10.008;2023-05-14T02:54:56;10.20;99.90
35962;DHT22;22044;48.298;10.008;2023-05-14T02:57:42;10.20;99.90
35962;DHT22;22044;48.298;10.008;2023-05-14T03:00:28;10.20;99.90
35962;DHT22;22044;48.298;10.008;2023-05-14T03:03:14;10.20;99.90
35962;DHT22;22044;48.298;10.008;2023-05-14T03:06:00;10.20;99.90
35962;DHT22;22044;48.298;10.008;2023-05-14T03:08:45;10.20;99.90
35962;DHT22;22044;48.298;10.008;2023-05-14T03:11:31;10.20;99.90
35962;DHT22;22044;48.298;10.008;2023-05-14T03:14:16;10.30;99.90
35962;DHT22;22044;48.298;10.008;2023-05-14T03:17:02;10.40;99.90
35962;DHT22;22044;48.298;10.008;2023-05-14T03:19:49;10.30;99.90
35962;DHT22;22044;48.298;10.008;2023-05-14T03:22:35;10.30;99.90
35962;DHT22;22044;48.298;10.008;2023-05-14T03:25:20;10.40;99.90
35962;DHT22;22044;48.298;10.008;2023-05-14T03:28:06;10.50;99.90
35962;DHT22;22044;48.298;10.008;2023-05-14T03:30:52;10.50;99.90
35962;DHT22;22044;48.298;10.008;2023-05-14T03:33:37;10.50;99.90
35962;DHT22;22044;48.298;10.008;2023-05-14T03:36:24;10.60;99.90
35962;DHT22;22044;48.298;10.008;2023-05-14T03:39:10;10.60;99.90
35962;DHT22;22044;48.298;10.008;2023-05-14T03:41:58;10.50;99.90
35962;DHT22;22044;48.298;10.008;2023-05-14T03:44:44;10.50;99.90
35962;DHT22;22044;48.298;10.008;2023-05-14T03:47:29;10.50;99.90
35962;DHT22;22044;48.298;10.008;2023-05-14T03:50:17;10.50;99.90
35962;DHT22;22044;48.298;10.008;2023-05-14T03:53:04;10.50;99.90
35962;DHT22;22044;48.298;10.008;2023-05-14T03:55:49;10.50;99.90
35962;DHT22;22044;48.298;10.008;2023-05-14T03:58:35;10.50;99.90
35962;DHT22;22044;48.298;10.008;2023-05-14T04:01:21;10.50;99.90
35962;DHT22;22044;48.298;10.008;2023-05-14T04:04:06;10.50;99.90
35962;DHT22;22044;48.298;10.008;2023-05-14T04:06:52;10.40;99.90
35962;DHT22;22044;48.298;10.008;2023-05-14T04:09:39;10.40;99.90
35962;DHT22;22044;48.298;10.008;2023-05-14T04:12:24;10.40;99.90
35962;DHT22;22044;48.298;10.008;2023-05-14T04:15:10;10.40;99.90
35962;DHT22;22044;48.298;10.008;2023-05-14T04:17:56;10.40;99.90
35962;DHT22;22044;48.298;10.008;2023-05-14T04:20:42;10.40;99.90
35962;DHT22;22044;48.298;10.008;2023-05-14T04:23:35;10.40;99.90
35962;DHT22;22044;48.298;10.008;2023-05-14T04:26:20;10.30;99.90
35962;DHT22;22044;48.298;10.008;2023-05-14T04:29:06;10.30;99.90
35962;DHT22;22044;48.298;10.008;2023-05-14T04:31:52;10.30;99.90
35962;DHT22;22044;48.298;10.008;2023-05-14T04:34:37;10.30;99.90
35962;DHT22;22044;48.298;10.008;2023-05-14T04:37:23;10.30;99.90
35962;DHT22;22044;48.298;10.008;2023-05-14T04:40:11;10.20;99.90
35962;DHT22;22044;48.298;10.008;2023-05-14T04:42:56;10.30;99.90
35962;DHT22;22044;48.298;10.008;2023-05-14T04:45:42;10.30;99.90
35962;DHT22;22044;48.298;10.008;2023-05-14T04:48:27;10.20;99.90
35962;DHT22;22044;48.298;10.008;2023-05-14T04:51:13;10.20;99.90
35962;DHT22;22044;48.298;10.008;2023-05-14T04:53:58;10.20;99.90
35962;DHT22;22044;48.298;10.008;2023-05-14T04:56:45;10.20;99.90
35962;DHT22;22044;48.298;10.008;2023-05-14T04:59:31;10.20;99.90
35962;DHT22;22044;48.298;10.008;2023-05-14T05:02:16;10.20;99.90
35962;DHT22;22044;48.298;10.008;2023-05-14T05:05:02;10.20;99.90
35962;DHT22;22044;48.298;10.008;2023-05-14T05:07:48;10.10;99.90
35962;DHT22;22044;48.298;10.008;2023-05-14T05:10:34;10.20;99.90
35962;DHT22;22044;48.298;10.008;2023-05-14T05:13:21;10.20;99.90
35962;DHT22;22044;48.298;10.008;2023-05-14T05:16:06;10.10;99.90
35962;DHT22;22044;48.298;10.008;2023-05-14T05:18:52;10.10;99.90
35962;DHT22;22044;48.298;10.008;2023-05-14T05:21:37;10.20;99.90
35962;DHT22;22044;48.298;10.008;2023-05-14T05:24:24;10.10;99.90
35962;DHT22;22044;48.298;10.008;2023-05-14T05:27:09;10.10;99.90
35962;DHT22;22044;48.298;10.008;2023-05-14T05:29:56;10.10;99.90
35962;DHT22;22044;48.298;10.008;2023-05-14T05:32:42;10.10;99.90
35962;DHT22;22044;48.298;10.008;2023-05-14T05:35:27;10.10;99.90
35962;DHT22;22044;48.298;10.008;2023-05-14T05:38:13;10.00;99.90
35962;DHT22;22044;48.298;10.008;2023-05-14T05:40:59;10.00;99.90
35962;DHT22;22044;48.298;10.008;2023-05-14T05:43:45;10.00;99.90
35962;DHT22;22044;48.298;10.008;2023-05-14T05:46:32;10.10;99.90
35962;DHT22;22044;48.298;10.008;2023-05-14T05:49:17;10.20;99.90
35962;DHT22;22044;48.298;10.008;2023-05-14T05:52:03;10.20;99.90
35962;DHT22;22044;48.298;10.008;2023-05-14T05:54:48;10.20;99.90
35962;DHT22;22044;48.298;10.008;2023-05-14T05:57:34;10.30;99.90
35962;DHT22;22044;48.298;10.008;2023-05-14T06:00:20;10.40;99.90
35962;DHT22;22044;48.298;10.008;2023-05-14T06:03:07;10.40;99.90
35962;DHT22;22044;48.298;10.008;2023-05-14T06:05:53;10.40;99.90
35962;DHT22;22044;48.298;10.008;2023-05-14T06:08:39;10.40;99.90
35962;DHT22;22044;48.298;10.008;2023-05-14T06:11:24;10.40;99.90
35962;DHT22;22044;48.298;10.008;2023-05-14T06:14:10;10.50;99.90
35962;DHT22;22044;48.298;10.008;2023-05-14T06:16:55;10.40;99.90
35962;DHT22;22044;48.298;10.008;2023-05-14T06:19:43;10.40;99.90
35962;DHT22;22044;48.298;10.008;2023-05-14T06:22:28;10.30;99.90
35962;DHT22;22044;48.298;10.008;2023-05-14T06:25:14;10.30;99.90
35962;DHT22;22044;48.298;10.008;2023-05-14T06:27:59;10.30;99.90
35962;DHT22;22044;48.298;10.008;2023-05-14T06:30:45;10.30;99.90
35962;DHT22;22044;48.298;10.008;2023-05-14T06:33:34;10.40;99.90
35962;DHT22;22044;48.298;10.008;2023-05-14T06:36:20;10.40;99.90
35962;DHT22;22044;48.298;10.008;2023-05-14T06:39:06;10.40;99.90
35962;DHT22;22044;48.298;10.008;2023-05-14T06:41:52;10.50;99.90
35962;DHT22;22044;48.298;10.008;2023-05-14T06:44:38;10.60;99.90
35962;DHT22;22044;48.298;10.008;2023-05-14T06:47:24;10.50;99.90
35962;DHT22;22044;48.298;10.008;2023-05-14T06:50:10;10.50;99.90
35962;DHT22;22044;48.298;10.008;2023-05-14T06:52:57;10.50;99.90
35962;DHT22;22044;48.298;10.008;2023-05-14T06:55:42;10.60;99.90
35962;DHT22;22044;48.298;10.008;2023-05-14T06:58:28;10.60;99.90
35962;DHT22;22044;48.298;10.008;2023-05-14T07:01:14;10.60;99.90
35962;DHT22;22044;48.298;10.008;2023-05-14T07:04:00;10.60;99.90
35962;DHT22;22044;48.298;10.008;2023-05-14T07:06:45;10.60;99.90
35962;DHT22;22044;48.298;10.008;2023-05-14T07:09:32;10.60;99.90
35962;DHT22;22044;48.298;10.008;2023-05-14T07:12:18;10.60;99.90
35962;DHT22;22044;48.298;10.008;2023-05-14T07:15:05;10.60;99.90
35962;DHT22;22044;48.298;10.008;2023-05-14T07:17:50;10.50;99.90
35962;DHT22;22044;48.298;10.008;2023-05-14T07:20:36;10.40;99.90
35962;DHT22;22044;48.298;10.008;2023-05-14T07:23:21;10.40;99.90
35962;DHT22;22044;48.298;10.008;2023-05-14T07:26:08;10.30;99.90
35962;DHT22;22044;48.298;10.008;2023-05-14T07:28:54;10.40;99.90
35962;DHT22;22044;48.298;10.008;2023-05-14T07:31:39;10.40;99.90
35962;DHT22;22044;48.298;10.008;2023-05-14T07:34:25;10.40;99.90
35962;DHT22;22044;48.298;10.008;2023-05-14T07:37:11;10.50;99.90
35962;DHT22;22044;48.298;10.008;2023-05-14T07:39:56;10.50;99.90
35962;DHT22;22044;48.298;10.008;2023-05-14T07:42:43;10.40;99.90
35962;DHT22;22044;48.298;10.008;2023-05-14T07:45:28;10.60;99.90
35962;DHT22;22044;48.298;10.008;2023-05-14T07:48:14;10.60;99.90
35962;DHT22;22044;48.298;10.008;2023-05-14T07:50:59;10.60;99.90
35962;DHT22;22044;48.298;10.008;2023-05-14T07:53:45;10.60;99.90
35962;DHT22;22044;48.298;10.008;2023-05-14T07:56:30;10.60;99.90
35962;DHT22;22044;48.298;10.008;2023-05-14T07:59:17;10.70;99.90
35962;DHT22;22044;48.298;10.008;2023-05-14T08:02:03;10.80;99.90
35962;DHT22;22044;48.298;10.008;2023-05-14T08:04:49;10.80;99.90
35962;DHT22;22044;48.298;10.008;2023-05-14T08:07:34;10.80;99.90
35962;DHT22;22044;48.298;10.008;2023-05-14T08:10:20;10.90;99.90
35962;DHT22;22044;48.298;10.008;2023-05-14T08:13:06;10.90;99.90
35962;DHT22;22044;48.298;10.008;2023-05-14T08:15:53;10.90;99.90
35962;DHT22;22044;48.298;10.008;2023-05-14T08:18:39;10.90;99.90
35962;DHT22;22044;48.298;10.008;2023-05-14T08:21:24;10.80;99.90
35962;DHT22;22044;48.298;10.008;2023-05-14T08:24:11;10.80;99.90
35962;DHT22;22044;48.298;10.008;2023-05-14T08:26:57;10.90;99.90
35962;DHT22;22044;48.298;10.008;2023-05-14T08:29:42;10.90;99.90
35962;DHT22;22044;48.298;10.008;2023-05-14T08:32:29;10.90;99.90
35962;DHT22;22044;48.298;10.008;2023-05-14T08:35:15;10.90;99.90
35962;DHT22;22044;48.298;10.008;2023-05-14T08:38:00;10.90;99.90
35962;DHT22;22044;48.298;10.008;2023-05-14T08:40:47;10.80;99.90
35962;DHT22;22044;48.298;10.008;2023-05-14T08:43:43;10.70;99.90
35962;DHT22;22044;48.298;10.008;2023-05-14T08:46:31;10.60;99.90
35962;DHT22;22044;48.298;10.008;2023-05-14T08:49:24;10.60;99.90
35962;DHT22;22044;48.298;10.008;2023-05-14T08:52:13;10.50;99.90
35962;DHT22;22044;48.298;10.008;2023-05-14T08:55:02;10.60;99.90
35962;DHT22;22044;48.298;10.008;2023-05-14T08:57:48;10.50;99.90
35962;DHT22;22044;48.298;10.008;2023-05-14T09:00:34;10.60;99.90
35962;DHT22;22044;48.298;10.008;2023-05-14T09:03:20;10.50;99.90
35962;DHT22;22044;48.298;10.008;2023-05-14T09:06:08;10.60;99.90
35962;DHT22;22044;48.298;10.008;2023-05-14T09:08:54;10.60;99.90
35962;DHT22;22044;48.298;10.008;2023-05-14T09:11:40;10.60;99.90
35962;DHT22;22044;48.298;10.008;2023-05-14T09:14:26;10.60;99.90
35962;DHT22;22044;48.298;10.008;2023-05-14T09:17:12;10.60;99.90
35962;DHT22;22044;48.298;10.008;2023-05-14T09:19:57;10.60;99.90
35962;DHT22;22044;48.298;10.008;2023-05-14T09:22:44;10.80;99.90
35962;DHT22;22044;48.298;10.008;2023-05-14T09:25:31;10.90;99.90
35962;DHT22;22044;48.298;10.008;2023-05-14T09:28:16;11.00;99.90
35962;DHT22;22044;48.298;10.008;2023-05-14T09:31:04;11.00;99.90
35962;DHT22;22044;48.298;10.008;2023-05-14T09:33:50;10.90;99.90
35962;DHT22;22044;48.298;10.008;2023-05-14T09:36:36;10.80;99.90
35962;DHT22;22044;48.298;10.008;2023-05-14T09:39:23;10.90;99.90
35962;DHT22;22044;48.298;10.008;2023-05-14T09:42:09;11.00;99.90
35962;DHT22;22044;48.298;10.008;2023-05-14T09:44:55;10.80;99.90
35962;DHT22;22044;48.298;10.008;2023-05-14T09:47:40;10.70;99.90
35962;DHT22;22044;48.298;10.008;2023-05-14T09:50:27;10.80;99.90
35962;DHT22;22044;48.298;10.008;2023-05-14T09:53:13;10.90;99.90
35962;DHT22;22044;48.298;10.008;2023-05-14T09:56:02;10.90;99.90
35962;DHT22;22044;48.298;10.008;2023-05-14T09:58:48;11.00;99.90
35962;DHT22;22044;48.298;10.008;2023-05-14T10:01:34;11.10;99.90
35962;DHT22;22044;48.298;10.008;2023-05-14T10:04:21;11.00;99.90
35962;DHT22;22044;48.298;10.008;2023-05-14T10:07:07;11.10;99.90
35962;DHT22;22044;48.298;10.008;2023-05-14T10:09:56;11.10;99.90
35962;DHT22;22044;48.298;10.008;2023-05-14T10:12:49;11.20;99.90
35962;DHT22;22044;48.298;10.008;2023-05-14T10:15:38;11.40;99.90
35962;DHT22;22044;48.298;10.008;2023-05-14T10:18:29;11.40;99.90
35962;DHT22;22044;48.298;10.008;2023-05-14T10:21:19;11.40;99.90
35962;DHT22;22044;48.298;10.008;2023-05-14T10:24:06;11.60;99.90
35962;DHT22;22044;48.298;10.008;2023-05-14T10:26:52;11.60;99.90
35962;DHT22;22044;48.298;10.008;2023-05-14T10:29:39;11.60;99.90
35962;DHT22;22044;48.298;10.008;2023-05-14T10:32:25;11.70;99.90
35962;DHT22;22044;48.298;10.008;2023-05-14T10:35:15;11.80;99.90
35962;DHT22;22044;48.298;10.008;2023-05-14T10:38:06;11.90;99.90
35962;DHT22;22044;48.298;10.008;2023-05-14T10:40:58;12.00;99.90
35962;DHT22;22044;48.298;10.008;2023-05-14T10:43:44;12.20;99.90
35962;DHT22;22044;48.298;10.008;2023-05-14T10:46:31;12.50;99.90
35962;DHT22;22044;48.298;10.008;2023-05-14T10:49:17;12.70;99.90
35962;DHT22;22044;48.298;10.008;2023-05-14T10:52:03;13.10;99.90
35962;DHT22;22044;48.298;10.008;2023-05-14T10:54:53;13.20;99.90
35962;DHT22;22044;48.298;10.008;2023-05-14T10:57:41;13.10;99.90
35962;DHT22;22044;48.298;10.008;2023-05-14T11:00:26;13.20;99.90
35962;DHT22;22044;48.298;10.008;2023-05-14T11:03:14;13.20;99.90
35962;DHT22;22044;48.298;10.008;2023-05-14T11:06:02;13.10;99.90
35962;DHT22;22044;48.298;10.008;2023-05-14T11:08:50;12.90;99.90
35962;DHT22;22044;48.298;10.008;2023-05-14T11:11:36;12.80;99.90
35962;DHT22;22044;48.298;10.008;2023-05-14T11:14:21;12.80;99.90
35962;DHT22;22044;48.298;10.008;2023-05-14T11:17:07;12.90;99.90
35962;DHT22;22044;48.298;10.008;2023-05-14T11:19:55;13.10;99.90
35962;DHT22;22044;48.298;10.008;2023-05-14T11:22:42;13.10;99.90
35962;DHT22;22044;48.298;10.008;2023-05-14T11:25:28;13.10;99.90
35962;DHT22;22044;48.298;10.008;2023-05-14T11:28:14;13.20;99.90
35962;DHT22;22044;48.298;10.008;2023-05-14T11:31:00;13.30;99.90
35962;DHT22;22044;48.298;10.008;2023-05-14T11:33:45;13.20;99.90
35962;DHT22;22044;48.298;10.008;2023-05-14T11:36:32;13.20;99.90
35962;DHT22;22044;48.298;10.008;2023-05-14T11:39:20;13.20;99.90
35962;DHT22;22044;48.298;10.008;2023-05-14T11:42:10;13.20;99.90
35962;DHT22;22044;48.298;10.008;2023-05-14T11:44:58;13.30;99.90
35962;DHT22;22044;48.298;10.008;2023-05-14T11:47:44;13.50;99.90
35962;DHT22;22044;48.298;10.008;2023-05-14T11:50:30;13.50;99.90
35962;DHT22;22044;48.298;10.008;2023-05-14T11:53:17;13.50;99.90
35962;DHT22;22044;48.298;10.008;2023-05-14T11:56:04;13.50;99.90
35962;DHT22;22044;48.298;10.008;2023-05-14T11:58:55;13.50;99.90
35962;DHT22;22044;48.298;10.008;2023-05-14T12:01:41;13.60;99.90
35962;DHT22;22044;48.298;10.008;2023-05-14T12:04:28;13.70;99.90
35962;DHT22;22044;48.298;10.008;2023-05-14T12:07:15;13.90;99.90
35962;DHT22;22044;48.298;10.008;2023-05-14T12:10:02;14.20;99.90
35962;DHT22;22044;48.298;10.008;2023-05-14T12:12:48;14.30;99.90
35962;DHT22;22044;48.298;10.008;2023-05-14T12:15:34;14.40;99.90
35962;DHT22;22044;48.298;10.008;2023-05-14T12:18:20;14.60;99.90
35962;DHT22;22044;48.298;10.008;2023-05-14T12:21:05;14.90;99.90
35962;DHT22;22044;48.298;10.008;2023-05-14T12:23:56;14.90;99.90
35962;DHT22;22044;48.298;10.008;2023-05-14T12:26:45;15.10;99.90
35962;DHT22;22044;48.298;10.008;2023-05-14T12:29:34;15.40;99.90
35962;DHT22;22044;48.298;10.008;2023-05-14T12:32:21;15.20;99.90
35962;DHT22;22044;48.298;10.008;2023-05-14T12:35:09;15.00;99.90
35962;DHT22;22044;48.298;10.008;2023-05-14T12:37:54;15.10;99.90
35962;DHT22;22044;48.298;10.008;2023-05-14T12:40:40;15.10;99.90
35962;DHT22;22044;48.298;10.008;2023-05-14T12:43:27;15.00;99.90
35962;DHT22;22044;48.298;10.008;2023-05-14T12:46:14;15.00;99.90
35962;DHT22;22044;48.298;10.008;2023-05-14T12:49:00;15.00;99.90
35962;DHT22;22044;48.298;10.008;2023-05-14T12:51:46;14.80;99.90
35962;DHT22;22044;48.298;10.008;2023-05-14T12:54:31;14.80;99.90
35962;DHT22;22044;48.298;10.008;2023-05-14T12:57:17;14.60;99.90
35962;DHT22;22044;48.298;10.008;2023-05-14T13:00:07;14.60;99.90
35962;DHT22;22044;48.298;10.008;2023-05-14T13:02:53;14.50;99.90
35962;DHT22;22044;48.298;10.008;2023-05-14T13:05:39;14.50;99.90
35962;DHT22;22044;48.298;10.008;2023-05-14T13:08:25;14.50;99.90
35962;DHT22;22044;48.298;10.008;2023-05-14T13:11:11;14.60;99.90
35962;DHT22;22044;48.298;10.008;2023-05-14T13:13:56;14.50;99.90
35962;DHT22;22044;48.298;10.008;2023-05-14T13:16:44;14.60;99.90
35962;DHT22;22044;48.298;10.008;2023-05-14T13:19:29;14.70;99.90
35962;DHT22;22044;48.298;10.008;2023-05-14T13:22:15;14.70;99.90
35962;DHT22;22044;48.298;10.008;2023-05-14T13:25:02;15.00;99.90
35962;DHT22;22044;48.298;10.008;2023-05-14T13:27:48;15.00;99.90
35962;DHT22;22044;48.298;10.008;2023-05-14T13:30:34;14.90;99.90
35962;DHT22;22044;48.298;10.008;2023-05-14T13:33:21;14.60;99.90
35962;DHT22;22044;48.298;10.008;2023-05-14T13:36:07;14.40;99.90
35962;DHT22;22044;48.298;10.008;2023-05-14T13:38:53;14.50;99.90
35962;DHT22;22044;48.298;10.008;2023-05-14T13:41:39;14.60;99.90
35962;DHT22;22044;48.298;10.008;2023-05-14T13:44:25;14.60;99.90
35962;DHT22;22044;48.298;10.008;2023-05-14T13:47:10;14.60;99.90
35962;DHT22;22044;48.298;10.008;2023-05-14T13:49:57;14.40;99.90
35962;DHT22;22044;48.298;10.008;2023-05-14T13:52:43;14.30;99.90
35962;DHT22;22044;48.298;10.008;2023-05-14T13:55:28;14.30;99.90
35962;DHT22;22044;48.298;10.008;2023-05-14T13:58:15;14.30;99.90
35962;DHT22;22044;48.298;10.008;2023-05-14T14:01:00;14.30;99.90
35962;DHT22;22044;48.298;10.008;2023-05-14T14:03:46;14.20;99.90
35962;DHT22;22044;48.298;10.008;2023-05-14T14:06:33;14.00;99.90
35962;DHT22;22044;48.298;10.008;2023-05-14T14:09:19;14.00;99.90
35962;DHT22;22044;48.298;10.008;2023-05-14T14:12:05;13.90;99.90
35962;DHT22;22044;48.298;10.008;2023-05-14T14:14:50;14.00;99.90
35962;DHT22;22044;48.298;10.008;2023-05-14T14:17:36;14.20;99.90
35962;DHT22;22044;48.298;10.008;2023-05-14T14:20:21;14.30;99.90
35962;DHT22;22044;48.298;10.008;2023-05-14T14:23:09;14.50;99.90
35962;DHT22;22044;48.298;10.008;2023-05-14T14:25:54;14.70;99.90
35962;DHT22;22044;48.298;10.008;2023-05-14T14:28:40;14.70;99.90
35962;DHT22;22044;48.298;10.008;2023-05-14T14:31:25;14.80;99.90
35962;DHT22;22044;48.298;10.008;2023-05-14T14:34:11;14.80;99.90
35962;DHT22;22044;48.298;10.008;2023-05-14T14:36:57;14.70;99.90
35962;DHT22;22044;48.298;10.008;2023-05-14T14:39:44;14.80;99.90
35962;DHT22;22044;48.298;10.008;2023-05-14T14:42:29;14.80;99.90
35962;DHT22;22044;48.298;10.008;2023-05-14T14:45:15;14.70;99.90
35962;DHT22;22044;48.298;10.008;2023-05-14T14:48:25;14.70;99.90
35962;DHT22;22044;48.298;10.008;2023-05-14T14:51:10;14.70;99.90
35962;DHT22;22044;48.298;10.008;2023-05-14T14:53:56;14.60;99.90
35962;DHT22;22044;48.298;10.008;2023-05-14T14:56:43;14.50;99.90
35962;DHT22;22044;48.298;10.008;2023-05-14T14:59:29;14.30;99.90
35962;DHT22;22044;48.298;10.008;2023-05-14T15:02:14;14.30;99.90
35962;DHT22;22044;48.298;10.008;2023-05-14T15:05:00;14.20;99.90
35962;DHT22;22044;48.298;10.008;2023-05-14T15:07:46;14.20;99.90
35962;DHT22;22044;48.298;10.008;2023-05-14T15:10:31;14.00;99.90
35962;DHT22;22044;48.298;10.008;2023-05-14T15:13:22;13.60;99.90
35962;DHT22;22044;48.298;10.008;2023-05-14T15:16:09;13.20;99.90
35962;DHT22;22044;48.298;10.008;2023-05-14T15:18:55;12.80;99.90
35962;DHT22;22044;48.298;10.008;2023-05-14T15:21:41;12.40;99.90
35962;DHT22;22044;48.298;10.008;2023-05-14T15:24:28;12.20;99.90
35962;DHT22;22044;48.298;10.008;2023-05-14T15:27:13;12.20;99.90
35962;DHT22;22044;48.298;10.008;2023-05-14T15:30:01;12.20;99.90
35962;DHT22;22044;48.298;10.008;2023-05-14T15:32:47;12.30;99.90
35962;DHT22;22044;48.298;10.008;2023-05-14T15:35:33;12.40;99.90
35962;DHT22;22044;48.298;10.008;2023-05-14T15:38:19;12.40;99.90
35962;DHT22;22044;48.298;10.008;2023-05-14T15:41:05;12.50;99.90
35962;DHT22;22044;48.298;10.008;2023-05-14T15:43:50;12.50;99.90
35962;DHT22;22044;48.298;10.008;2023-05-14T15:46:37;12.60;99.90
35962;DHT22;22044;48.298;10.008;2023-05-14T15:49:23;12.60;99.90
35962;DHT22;22044;48.298;10.008;2023-05-14T15:52:09;12.60;99.90
35962;DHT22;22044;48.298;10.008;2023-05-14T15:54:55;12.60;99.90
35962;DHT22;22044;48.298;10.008;2023-05-14T15:57:42;12.70;99.90
35962;DHT22;22044;48.298;10.008;2023-05-14T16:00:28;12.80;99.90
35962;DHT22;22044;48.298;10.008;2023-05-14T16:03:16;12.80;99.90
35962;DHT22;22044;48.298;10.008;2023-05-14T16:06:01;12.80;99.90
35962;DHT22;22044;48.298;10.008;2023-05-14T16:08:47;12.70;99.90
35962;DHT22;22044;48.298;10.008;2023-05-14T16:11:33;12.80;99.90
35962;DHT22;22044;48.298;10.008;2023-05-14T16:14:18;12.80;99.90
35962;DHT22;22044;48.298;10.008;2023-05-14T16:17:04;12.80;99.90
35962;DHT22;22044;48.298;10.008;2023-05-14T16:19:51;12.80;99.90
35962;DHT22;22044;48.298;10.008;2023-05-14T16:22:37;12.80;99.90
35962;DHT22;22044;48.298;10.008;2023-05-14T16:25:23;12.80;99.90
35962;DHT22;22044;48.298;10.008;2023-05-14T16:28:09;12.80;99.90
35962;DHT22;22044;48.298;10.008;2023-05-14T16:30:54;12.80;99.90
35962;DHT22;22044;48.298;10.008;2023-05-14T16:33:40;12.80;99.90
35962;DHT22;22044;48.298;10.008;2023-05-14T16:36:27;12.80;99.90
35962;DHT22;22044;48.298;10.008;2023-05-14T16:39:12;12.70;99.90
35962;DHT22;22044;48.298;10.008;2023-05-14T16:41:58;12.70;99.90
35962;DHT22;22044;48.298;10.008;2023-05-14T16:44:44;12.60;99.90
35962;DHT22;22044;48.298;10.008;2023-05-14T16:47:30;12.60;99.90
35962;DHT22;22044;48.298;10.008;2023-05-14T16:50:15;12.70;99.90
35962;DHT22;22044;48.298;10.008;2023-05-14T16:53:02;12.60;99.90
35962;DHT22;22044;48.298;10.008;2023-05-14T16:55:49;12.60;99.90
35962;DHT22;22044;48.298;10.008;2023-05-14T16:58:35;12.70;99.90
35962;DHT22;22044;48.298;10.008;2023-05-14T17:01:21;12.70;99.90
35962;DHT22;22044;48.298;10.008;2023-05-14T17:04:07;12.90;99.90
35962;DHT22;22044;48.298;10.008;2023-05-14T17:06:52;12.80;99.90
35962;DHT22;22044;48.298;10.008;2023-05-14T17:09:40;12.50;99.90
35962;DHT22;22044;48.298;10.008;2023-05-14T17:12:26;12.50;99.90
35962;DHT22;22044;48.298;10.008;2023-05-14T17:15:11;12.50;99.90